Time;durP1;ratioP1;P1;durP2;ratioP2;P2;SDS_P1;SDS_P2;PMS_P1;PMS_P2;Temp;Humidity;BMP_temperature;BMP_pressure;BME280_temperature;BME280_humidity;BME280_pressure;Samples;Min_cycle;Max_cycle;Signal;HPM_P1;HPM_P2
2024/01/11 00:01:00;;;;;;;7.63;5.45;;;;;;;;;;4998454;28;95205;-77
2024/01/11 00:03:26;;;;;;;7.45;4.72;;;;;;;;;;4997724;28;94000;-77
2024/01/11 00:05:53;;;;;;;5.85;4.70;;;;;;;;;;5003902;28;93942;-77
2024/01/11 00:08:19;;;;;;;6.70;5.53;;;;;;;;;;5001803;28;92326;-77
2024/01/11 00:10:46;;;;;;;10.25;5.68;;;;;;;;;;5005615;28;92497;-77
2024/01/11 00:13:12;;;;;;;6.55;4.85;;;;;;;;;;4980692;28;92490;-77
2024/01/11 00:15:38;;;;;;;8.82;5.50;;;;;;;;;;5010026;28;92169;-77
2024/01/11 00:18:06;;;;;;;7.68;4.22;;;;;;;;;;4998954;28;92312;-77
2024/01/11 00:20:32;;;;;;;9.48;5.88;;;;;;;;;;5007152;28;92474;-77
2024/01/11 00:22:59;;;;;;;9.48;5.65;;;;;;;;;;5000134;28;92410;-77
2024/01/11 00:25:25;;;;;;;8.75;5.55;;;;;;;;;;5005764;28;95387;-77
2024/01/11 00:27:52;;;;;;;7.75;5.60;;;;;;;;;;5000622;28;92424;-77
2024/01/11 00:30:18;;;;;;;7.18;5.28;;;;;;;;;;5001836;28;92520;-77
2024/01/11 00:32:45;;;;;;;7.07;5.35;;;;;;;;;;4997508;28;93118;-77
2024/01/11 00:35:11;;;;;;;7.75;5.50;;;;;;;;;;5001566;28;92674;-77
2024/01/11 00:37:38;;;;;;;7.57;5.45;;;;;;;;;;4996689;28;92448;-77
2024/01/11 00:40:05;;;;;;;8.50;5.50;;;;;;;;;;5019075;28;93607;-77
2024/01/11 00:42:32;;;;;;;7.22;4.70;;;;;;;;;;4999789;28;92911;-77
2024/01/11 00:44:58;;;;;;;6.82;4.85;;;;;;;;;;5000403;28;93030;-77
2024/01/11 00:47:25;;;;;;;7.82;5.65;;;;;;;;;;4998615;28;92618;-77
2024/01/11 00:49:52;;;;;;;10.18;5.35;;;;;;;;;;5000237;28;94891;-77
2024/01/11 00:52:18;;;;;;;7.38;4.72;;;;;;;;;;4998354;28;92832;-77
2024/01/11 00:54:44;;;;;;;12.30;6.35;;;;;;;;;;5006602;28;92901;-77
2024/01/11 00:57:11;;;;;;;7.72;5.00;;;;;;;;;;5008482;28;93738;-77
2024/01/11 00:59:39;;;;;;;7.28;5.30;;;;;;;;;;5012245;28;92652;-77
2024/01/11 01:02:06;;;;;;;7.75;5.07;;;;;;;;;;5001149;28;92606;-77
2024/01/11 01:04:32;;;;;;;7.70;5.55;;;;;;;;;;4992425;28;92353;-77
2024/01/11 01:06:58;;;;;;;7.57;5.72;;;;;;;;;;4998594;28;93197;-77
2024/01/11 01:09:25;;;;;;;6.88;5.32;;;;;;;;;;4994589;28;92618;-77
2024/01/11 01:11:51;;;;;;;12.52;5.72;;;;;;;;;;5003842;28;92487;-77
2024/01/11 01:14:18;;;;;;;6.45;5.15;;;;;;;;;;4993966;28;95070;-77
2024/01/11 01:16:44;;;;;;;14.65;5.82;;;;;;;;;;5001939;28;92503;-77
2024/01/11 01:19:11;;;;;;;8.15;5.30;;;;;;;;;;4994872;28;92474;-77
2024/01/11 01:21:38;;;;;;;8.35;5.25;;;;;;;;;;5002766;28;92457;-77
2024/01/11 01:24:04;;;;;;;6.15;5.32;;;;;;;;;;4992998;28;95446;-77
2024/01/11 01:26:30;;;;;;;9.70;5.38;;;;;;;;;;5006914;28;92453;-77
2024/01/11 01:28:57;;;;;;;6.32;5.50;;;;;;;;;;4996891;28;92469;-77
2024/01/11 01:31:24;;;;;;;9.18;5.72;;;;;;;;;;4992737;28;92081;-77
2024/01/11 01:33:50;;;;;;;7.30;5.32;;;;;;;;;;4995054;28;92912;-77
2024/01/11 01:36:17;;;;;;;6.55;4.82;;;;;;;;;;5005407;28;94377;-77
2024/01/11 01:38:43;;;;;;;8.82;5.88;;;;;;;;;;4988689;28;95106;-77
2024/01/11 01:41:10;;;;;;;8.55;5.43;;;;;;;;;;4999117;28;95268;-77
2024/01/11 01:43:36;;;;;;;7.47;5.40;;;;;;;;;;4977373;28;93987;-77
2024/01/11 01:46:03;;;;;;;8.68;5.38;;;;;;;;;;4994208;28;93865;-77
2024/01/11 01:48:30;;;;;;;7.40;5.10;;;;;;;;;;4996098;28;92729;-77
2024/01/11 01:50:56;;;;;;;11.15;4.97;;;;;;;;;;4979495;28;93281;-77
2024/01/11 01:53:24;;;;;;;11.95;4.68;;;;;;;;;;4956968;28;1179147;-77
2024/01/11 01:55:52;;;;;;;13.52;5.25;;;;;;;;;;5006101;28;92695;-77
2024/01/11 01:58:19;;;;;;;7.82;5.40;;;;;;;;;;5011789;28;92101;-77
2024/01/11 02:00:45;;;;;;;7.00;5.00;;;;;;;;;;5009976;28;92733;-77
2024/01/11 02:03:14;;;;;;;6.90;5.35;;;;;;;;;;4990083;28;96356;-77
2024/01/11 02:05:41;;;;;;;5.72;4.80;;;;;;;;;;5001792;28;92282;-77
2024/01/11 02:08:08;;;;;;;8.52;5.07;;;;;;;;;;4998275;28;92819;-77
2024/01/11 02:10:38;;;;;;;8.90;6.20;;;;;;;;;;5009512;28;93148;-77
2024/01/11 02:13:04;;;;;;;7.18;5.47;;;;;;;;;;5009109;28;92505;-77
2024/01/11 02:15:35;;;;;;;7.47;5.50;;;;;;;;;;5001085;28;95201;-77
2024/01/11 02:18:01;;;;;;;9.52;5.68;;;;;;;;;;5007852;28;92914;-77
2024/01/11 02:20:28;;;;;;;6.95;5.25;;;;;;;;;;5009046;28;94135;-77
2024/01/11 02:22:58;;;;;;;7.00;5.35;;;;;;;;;;5006803;28;93236;-77
2024/01/11 02:25:24;;;;;;;9.68;4.97;;;;;;;;;;4989465;28;93144;-77
2024/01/11 02:27:51;;;;;;;6.85;4.88;;;;;;;;;;4990085;28;94798;-77
2024/01/11 02:30:17;;;;;;;8.80;5.13;;;;;;;;;;4998647;28;94587;-77
2024/01/11 02:32:48;;;;;;;9.95;5.53;;;;;;;;;;4998945;28;92406;-77
2024/01/11 02:35:15;;;;;;;7.47;5.30;;;;;;;;;;5001750;28;92391;-77
2024/01/11 02:37:42;;;;;;;7.53;5.43;;;;;;;;;;5006546;28;92407;-77
2024/01/11 02:40:09;;;;;;;6.93;5.43;;;;;;;;;;5010376;28;92899;-77
2024/01/11 02:42:36;;;;;;;7.10;5.30;;;;;;;;;;5011094;28;92387;-77
2024/01/11 02:45:05;;;;;;;6.85;5.15;;;;;;;;;;5012176;28;92774;-77
2024/01/11 02:47:32;;;;;;;6.70;5.55;;;;;;;;;;5010472;28;92384;-77
2024/01/11 02:49:58;;;;;;;6.95;5.07;;;;;;;;;;5011036;28;92158;-78
2024/01/11 02:52:25;;;;;;;6.55;5.05;;;;;;;;;;5001632;28;94997;-77
2024/01/11 02:54:51;;;;;;;10.18;6.63;;;;;;;;;;5003245;28;93956;-77
2024/01/11 02:57:18;;;;;;;8.80;5.70;;;;;;;;;;4997220;28;92470;-77
2024/01/11 02:59:44;;;;;;;8.73;6.38;;;;;;;;;;5007739;28;92523;-77
2024/01/11 03:02:11;;;;;;;7.47;6.05;;;;;;;;;;4994282;28;92524;-77
2024/01/11 03:04:37;;;;;;;7.22;5.18;;;;;;;;;;4995942;28;92536;-77
2024/01/11 03:07:04;;;;;;;6.82;5.30;;;;;;;;;;5000685;28;92939;-77
2024/01/11 03:09:30;;;;;;;7.50;5.53;;;;;;;;;;5010356;28;92134;-77
2024/01/11 03:11:57;;;;;;;10.95;6.22;;;;;;;;;;4997876;28;92571;-77
2024/01/11 03:14:23;;;;;;;12.07;5.40;;;;;;;;;;4994419;28;92448;-77
2024/01/11 03:16:49;;;;;;;7.57;6.00;;;;;;;;;;4997059;28;95591;-77
2024/01/11 03:19:16;;;;;;;7.82;5.03;;;;;;;;;;5005658;28;92984;-77
2024/01/11 03:21:43;;;;;;;9.75;6.40;;;;;;;;;;5003763;28;92755;-77
2024/01/11 03:24:09;;;;;;;6.05;4.85;;;;;;;;;;4992521;28;92491;-77
2024/01/11 03:26:36;;;;;;;8.70;5.68;;;;;;;;;;5000970;28;92423;-77
2024/01/11 03:29:02;;;;;;;8.27;6.18;;;;;;;;;;4991345;28;92313;-77
2024/01/11 03:31:29;;;;;;;8.18;6.20;;;;;;;;;;5001900;28;92978;-77
2024/01/11 03:33:55;;;;;;;7.38;5.93;;;;;;;;;;4993221;28;91850;-77
2024/01/11 03:36:25;;;;;;;11.65;6.68;;;;;;;;;;5000353;28;92387;-77
2024/01/11 03:38:51;;;;;;;7.82;6.43;;;;;;;;;;4991497;28;93251;-77
2024/01/11 03:41:19;;;;;;;8.25;6.25;;;;;;;;;;5004381;28;94933;-77
2024/01/11 03:43:45;;;;;;;8.45;6.07;;;;;;;;;;5014352;28;92268;-77
2024/01/11 03:46:12;;;;;;;8.80;5.95;;;;;;;;;;4996819;28;92352;-77
2024/01/11 03:48:38;;;;;;;7.90;5.95;;;;;;;;;;5000042;28;92519;-77
2024/01/11 03:51:06;;;;;;;8.18;5.90;;;;;;;;;;5004499;28;92996;-77
2024/01/11 03:53:36;;;;;;;10.27;5.70;;;;;;;;;;4997530;28;92429;-77
2024/01/11 03:56:03;;;;;;;7.90;5.78;;;;;;;;;;4996868;28;92642;-77
2024/01/11 03:58:30;;;;;;;9.15;6.82;;;;;;;;;;5006845;28;92950;-77
2024/01/11 04:00:57;;;;;;;8.48;6.70;;;;;;;;;;4996192;28;92460;-77
2024/01/11 04:03:23;;;;;;;8.00;6.22;;;;;;;;;;4990147;28;92600;-77
2024/01/11 04:05:50;;;;;;;9.07;6.25;;;;;;;;;;4993854;28;94894;-77
2024/01/11 04:08:16;;;;;;;8.75;7.05;;;;;;;;;;4991828;28;92331;-77
2024/01/11 04:10:43;;;;;;;10.07;6.95;;;;;;;;;;4992201;28;94527;-77
2024/01/11 04:13:10;;;;;;;10.15;6.60;;;;;;;;;;4991871;28;92551;-77
2024/01/11 04:15:36;;;;;;;11.32;6.43;;;;;;;;;;4992112;28;92605;-77
2024/01/11 04:18:03;;;;;;;9.75;6.82;;;;;;;;;;4989626;28;92962;-77
2024/01/11 04:20:30;;;;;;;9.93;7.53;;;;;;;;;;4994717;28;92740;-77
2024/01/11 04:22:56;;;;;;;8.68;6.55;;;;;;;;;;4990067;28;92056;-77
2024/01/11 04:25:23;;;;;;;10.63;6.72;;;;;;;;;;5006434;28;92778;-77
2024/01/11 04:27:49;;;;;;;10.05;7.07;;;;;;;;;;4988434;28;94448;-77
2024/01/11 04:30:15;;;;;;;10.20;7.30;;;;;;;;;;4995836;28;95121;-77
2024/01/11 04:32:42;;;;;;;8.15;7.28;;;;;;;;;;4990689;28;94041;-77
2024/01/11 04:35:08;;;;;;;8.85;7.15;;;;;;;;;;4995647;28;93280;-77
2024/01/11 04:37:35;;;;;;;9.32;6.80;;;;;;;;;;5015140;28;94496;-77
2024/01/11 04:40:03;;;;;;;10.50;7.57;;;;;;;;;;4995765;28;92480;-77
2024/01/11 04:42:30;;;;;;;9.52;6.95;;;;;;;;;;4995312;28;95348;-77
2024/01/11 04:44:56;;;;;;;8.75;6.57;;;;;;;;;;5009941;28;93160;-77
2024/01/11 04:47:22;;;;;;;9.27;6.57;;;;;;;;;;4997208;28;92033;-77
2024/01/11 04:49:49;;;;;;;9.45;7.20;;;;;;;;;;4997797;28;92432;-77
2024/01/11 04:52:15;;;;;;;8.52;6.25;;;;;;;;;;4999557;28;92440;-77
2024/01/11 04:54:42;;;;;;;10.25;6.97;;;;;;;;;;5001210;28;95553;-77
2024/01/11 04:57:08;;;;;;;11.15;7.85;;;;;;;;;;4981965;28;93218;-77
2024/01/11 04:59:35;;;;;;;10.52;6.93;;;;;;;;;;4997939;28;92422;-77
2024/01/11 05:02:01;;;;;;;9.15;6.75;;;;;;;;;;4993010;28;93202;-77
2024/01/11 05:04:28;;;;;;;11.50;7.20;;;;;;;;;;4993722;28;94483;-77
2024/01/11 05:06:54;;;;;;;9.25;7.50;;;;;;;;;;4993244;28;93156;-77
2024/01/11 05:09:21;;;;;;;9.88;7.15;;;;;;;;;;4996867;28;93339;-77
2024/01/11 05:11:47;;;;;;;8.07;6.80;;;;;;;;;;5011200;28;91833;-77
2024/01/11 05:14:13;;;;;;;10.18;6.78;;;;;;;;;;4994564;28;92508;-77
2024/01/11 05:16:41;;;;;;;10.20;7.78;;;;;;;;;;4996873;28;92882;-77
2024/01/11 05:19:07;;;;;;;12.02;7.47;;;;;;;;;;5004664;28;95051;-77
2024/01/11 05:21:34;;;;;;;13.43;7.28;;;;;;;;;;4995978;28;93320;-77
2024/01/11 05:24:01;;;;;;;9.75;7.53;;;;;;;;;;4994502;28;92522;-77
2024/01/11 05:26:27;;;;;;;12.48;7.75;;;;;;;;;;5002622;28;92732;-77
2024/01/11 05:28:54;;;;;;;11.13;7.40;;;;;;;;;;4994773;28;92838;-76
2024/01/11 05:31:21;;;;;;;9.02;6.75;;;;;;;;;;5003719;28;92476;-77
2024/01/11 05:33:48;;;;;;;8.77;6.93;;;;;;;;;;4996622;28;92984;-77
2024/01/11 05:36:15;;;;;;;10.13;7.32;;;;;;;;;;5002455;28;93242;-77
2024/01/11 05:38:41;;;;;;;10.95;6.97;;;;;;;;;;4992482;28;92336;-77
2024/01/11 05:41:08;;;;;;;10.02;8.07;;;;;;;;;;5005506;28;92726;-77
2024/01/11 05:43:37;;;;;;;11.52;8.15;;;;;;;;;;5001277;28;94849;-77
2024/01/11 05:46:03;;;;;;;11.15;8.02;;;;;;;;;;5011010;28;95097;-77
2024/01/11 05:48:29;;;;;;;11.68;8.55;;;;;;;;;;5004275;28;92351;-77
2024/01/11 05:50:56;;;;;;;11.45;6.93;;;;;;;;;;5007457;28;92396;-77
2024/01/11 05:53:24;;;;;;;8.73;7.82;;;;;;;;;;5016219;28;92298;-77
2024/01/11 05:55:51;;;;;;;10.23;7.20;;;;;;;;;;5013520;28;92938;-77
2024/01/11 05:58:20;;;;;;;10.88;8.10;;;;;;;;;;4993258;28;93705;-77
2024/01/11 06:00:47;;;;;;;9.60;7.22;;;;;;;;;;5017071;28;92461;-77
2024/01/11 06:03:13;;;;;;;13.00;8.27;;;;;;;;;;4992717;28;94547;-76
2024/01/11 06:05:40;;;;;;;11.23;7.72;;;;;;;;;;4994347;28;92838;-77
2024/01/11 06:08:07;;;;;;;13.48;8.25;;;;;;;;;;4998121;28;96847;-77
2024/01/11 06:10:33;;;;;;;11.23;8.27;;;;;;;;;;4994933;28;93751;-78
2024/01/11 06:13:00;;;;;;;9.15;7.93;;;;;;;;;;4995272;28;92962;-80
2024/01/11 06:15:26;;;;;;;13.02;8.30;;;;;;;;;;4993644;28;95693;-77
2024/01/11 06:17:53;;;;;;;12.57;8.45;;;;;;;;;;4993836;28;92877;-78
2024/01/11 06:20:20;;;;;;;12.50;8.48;;;;;;;;;;5007266;28;93355;-78
2024/01/11 06:22:47;;;;;;;9.77;7.57;;;;;;;;;;5012413;28;92780;-78
2024/01/11 06:25:13;;;;;;;12.45;8.15;;;;;;;;;;5003126;28;92559;-79
2024/01/11 06:27:42;;;;;;;13.05;8.38;;;;;;;;;;4995411;28;93125;-78
2024/01/11 06:30:09;;;;;;;13.45;7.50;;;;;;;;;;5007736;28;92358;-78
2024/01/11 06:32:35;;;;;;;10.35;7.10;;;;;;;;;;4997278;28;94862;-78
2024/01/11 06:35:02;;;;;;;10.40;7.20;;;;;;;;;;4989991;28;93932;-79
2024/01/11 06:37:29;;;;;;;9.55;7.97;;;;;;;;;;4997458;28;92515;-78
2024/01/11 06:39:56;;;;;;;12.38;8.00;;;;;;;;;;5001516;28;92414;-78
2024/01/11 06:42:22;;;;;;;10.13;7.80;;;;;;;;;;5013590;28;92358;-78
2024/01/11 06:44:49;;;;;;;8.48;6.95;;;;;;;;;;5016713;28;94057;-78
2024/01/11 06:47:15;;;;;;;7.85;6.80;;;;;;;;;;5015292;28;92417;-78
2024/01/11 06:49:42;;;;;;;10.73;7.30;;;;;;;;;;4998105;28;92048;-78
2024/01/11 06:52:08;;;;;;;8.65;6.75;;;;;;;;;;5006489;28;92316;-78
2024/01/11 06:54:35;;;;;;;13.30;8.57;;;;;;;;;;5015546;28;93279;-79
2024/01/11 06:57:01;;;;;;;10.00;6.45;;;;;;;;;;5015828;28;94732;-77
2024/01/11 06:59:28;;;;;;;8.80;7.15;;;;;;;;;;4999606;28;92307;-77
2024/01/11 07:01:54;;;;;;;13.95;6.68;;;;;;;;;;4994668;28;92449;-77
2024/01/11 07:04:21;;;;;;;8.27;6.63;;;;;;;;;;4993523;28;92542;-77
2024/01/11 07:06:47;;;;;;;10.38;6.53;;;;;;;;;;4981290;28;94924;-77
2024/01/11 07:09:16;;;;;;;8.63;6.30;;;;;;;;;;5001674;28;92715;-77
2024/01/11 07:11:44;;;;;;;10.35;7.05;;;;;;;;;;4994619;28;92538;-76
2024/01/11 07:14:10;;;;;;;11.85;5.93;;;;;;;;;;4999089;28;91639;-77
2024/01/11 07:16:37;;;;;;;8.13;6.03;;;;;;;;;;4997916;28;92470;-77
2024/01/11 07:19:03;;;;;;;9.18;6.30;;;;;;;;;;4993960;28;92443;-77
2024/01/11 07:21:31;;;;;;;21.65;5.65;;;;;;;;;;4994352;28;94898;-77
2024/01/11 07:23:58;;;;;;;8.02;6.05;;;;;;;;;;4989000;28;94334;-77
2024/01/11 07:26:24;;;;;;;6.93;5.28;;;;;;;;;;4997345;28;92471;-77
2024/01/11 07:28:51;;;;;;;10.63;5.88;;;;;;;;;;4988866;28;95063;-78
2024/01/11 07:31:18;;;;;;;10.60;5.80;;;;;;;;;;4999093;28;92854;-78
2024/01/11 07:33:44;;;;;;;10.05;6.60;;;;;;;;;;4991535;28;92363;-77
2024/01/11 07:36:11;;;;;;;7.53;5.55;;;;;;;;;;4997348;28;92472;-77
2024/01/11 07:38:38;;;;;;;9.27;6.10;;;;;;;;;;4990971;28;92654;-76
2024/01/11 07:41:04;;;;;;;6.22;5.63;;;;;;;;;;5003473;28;93071;-76
2024/01/11 07:43:34;;;;;;;7.25;5.50;;;;;;;;;;5008193;28;94028;-76
2024/01/11 07:46:14;;;;;;;9.90;5.53;;;;;;;;;;4990938;28;94979;-76
2024/01/11 07:48:41;;;;;;;8.23;5.78;;;;;;;;;;4991106;28;92312;-76
2024/01/11 07:51:07;;;;;;;8.07;5.90;;;;;;;;;;5000370;28;92976;-76
2024/01/11 07:53:34;;;;;;;8.82;5.57;;;;;;;;;;4990241;28;93275;-76
2024/01/11 07:56:01;;;;;;;7.75;6.13;;;;;;;;;;4991639;28;92646;-76
2024/01/11 07:58:27;;;;;;;5.55;4.95;;;;;;;;;;4997870;28;92355;-77
2024/01/11 08:00:54;;;;;;;9.55;5.13;;;;;;;;;;4996614;28;93596;-75
2024/01/11 08:03:21;;;;;;;7.18;5.45;;;;;;;;;;4993911;28;92786;-75
2024/01/11 08:05:50;;;;;;;8.70;5.80;;;;;;;;;;4994498;28;92521;-74
2024/01/11 08:08:17;;;;;;;12.52;6.40;;;;;;;;;;4992497;28;92560;-75
2024/01/11 08:10:43;;;;;;;8.45;5.57;;;;;;;;;;4991958;28;94750;-74
2024/01/11 08:13:10;;;;;;;7.50;5.85;;;;;;;;;;4994698;28;93001;-75
2024/01/11 08:15:37;;;;;;;9.32;5.63;;;;;;;;;;4989217;28;92497;-74
2024/01/11 08:18:04;;;;;;;9.50;6.25;;;;;;;;;;4996240;28;92916;-75
2024/01/11 08:20:32;;;;;;;8.02;6.18;;;;;;;;;;5006432;28;94287;-75
2024/01/11 08:22:59;;;;;;;7.57;5.78;;;;;;;;;;4998714;28;92750;-73
2024/01/11 08:25:25;;;;;;;9.73;6.82;;;;;;;;;;4997161;28;92658;-73
2024/01/11 08:27:52;;;;;;;10.25;6.80;;;;;;;;;;5003560;28;92972;-76
2024/01/11 08:30:19;;;;;;;12.65;6.07;;;;;;;;;;5002147;28;92585;-75
2024/01/11 08:32:45;;;;;;;10.90;6.50;;;;;;;;;;5009787;28;92575;-73
2024/01/11 08:35:12;;;;;;;10.70;6.50;;;;;;;;;;5007608;28;94919;-73
2024/01/11 08:37:39;;;;;;;7.85;6.03;;;;;;;;;;5007784;28;94081;-73
2024/01/11 08:40:06;;;;;;;6.82;5.63;;;;;;;;;;5009761;28;92455;-72
2024/01/11 08:42:32;;;;;;;18.15;6.43;;;;;;;;;;5011229;28;92468;-72
2024/01/11 08:45:03;;;;;;;14.85;6.10;;;;;;;;;;4999886;28;92595;-72
2024/01/11 08:47:30;;;;;;;9.23;5.70;;;;;;;;;;5006691;28;92326;-72
2024/01/11 08:49:56;;;;;;;5.97;5.40;;;;;;;;;;4997469;28;94412;-74
2024/01/11 08:52:23;;;;;;;7.75;5.22;;;;;;;;;;5001537;28;92051;-74
2024/01/11 08:54:50;;;;;;;8.75;6.00;;;;;;;;;;4992071;28;92977;-73
2024/01/11 08:57:17;;;;;;;10.60;6.78;;;;;;;;;;5003041;28;92794;-73
2024/01/11 08:59:44;;;;;;;10.73;6.22;;;;;;;;;;5007364;28;95534;-74
2024/01/11 09:02:10;;;;;;;8.13;6.10;;;;;;;;;;4992915;28;93136;-73
2024/01/11 09:04:44;;;;;;;6.22;5.60;;;;;;;;;;4994068;28;93355;-74
2024/01/11 09:07:10;;;;;;;9.13;5.57;;;;;;;;;;4996806;28;93216;-73
2024/01/11 09:09:37;;;;;;;10.20;6.35;;;;;;;;;;4995840;28;92687;-72
2024/01/11 09:12:16;;;;;;;7.28;5.97;;;;;;;;;;5010759;28;95194;-73
2024/01/11 09:14:42;;;;;;;9.50;6.00;;;;;;;;;;5003808;28;92987;-74
2024/01/11 09:17:09;;;;;;;9.85;6.53;;;;;;;;;;5006150;28;93175;-74
2024/01/11 09:19:37;;;;;;;7.88;6.13;;;;;;;;;;5002652;28;92610;-73
2024/01/11 09:22:04;;;;;;;7.05;5.78;;;;;;;;;;5006913;28;92449;-74
2024/01/11 09:24:31;;;;;;;7.32;6.15;;;;;;;;;;4991941;28;94921;-72
2024/01/11 09:27:04;;;;;;;8.77;6.07;;;;;;;;;;5007938;28;93009;-72
2024/01/11 09:29:30;;;;;;;7.30;6.32;;;;;;;;;;5001722;28;94452;-73
2024/01/11 09:31:57;;;;;;;7.45;5.72;;;;;;;;;;5010362;28;93259;-72
2024/01/11 09:34:23;;;;;;;9.68;5.97;;;;;;;;;;4998954;28;92953;-71
2024/01/11 09:36:50;;;;;;;9.43;5.80;;;;;;;;;;5010845;28;92586;-72
2024/01/11 09:39:16;;;;;;;8.80;6.28;;;;;;;;;;5011027;28;92374;-72
2024/01/11 09:41:47;;;;;;;10.15;6.72;;;;;;;;;;5008198;28;92094;-73
2024/01/11 09:44:14;;;;;;;11.30;5.93;;;;;;;;;;5011411;28;92272;-74
2024/01/11 09:46:40;;;;;;;8.20;6.22;;;;;;;;;;4991460;28;92353;-75
2024/01/11 09:49:08;;;;;;;13.57;6.47;;;;;;;;;;4995632;28;94899;-76
2024/01/11 09:51:37;;;;;;;6.55;5.65;;;;;;;;;;4993390;28;96177;-73
2024/01/11 09:54:04;;;;;;;9.95;5.93;;;;;;;;;;4992454;28;92711;-73
2024/01/11 09:56:31;;;;;;;9.82;6.80;;;;;;;;;;4993715;28;93080;-74
2024/01/11 09:58:57;;;;;;;8.10;5.47;;;;;;;;;;4997295;28;93366;-74
2024/01/11 10:01:24;;;;;;;10.57;5.93;;;;;;;;;;4991707;28;93038;-74
2024/01/11 10:03:52;;;;;;;11.07;5.63;;;;;;;;;;4992959;28;93071;-73
2024/01/11 10:06:19;;;;;;;8.70;6.20;;;;;;;;;;4993460;28;92455;-71
2024/01/11 10:08:46;;;;;;;10.65;6.53;;;;;;;;;;5001234;28;93316;-71
2024/01/11 10:11:12;;;;;;;12.75;6.68;;;;;;;;;;4994000;28;92135;-70
2024/01/11 10:13:39;;;;;;;9.00;5.78;;;;;;;;;;4993968;28;94886;-71
2024/01/11 10:16:09;;;;;;;9.38;5.95;;;;;;;;;;4993941;28;94142;-71
2024/01/11 10:18:36;;;;;;;6.32;5.15;;;;;;;;;;4992272;28;92315;-75
2024/01/11 10:21:03;;;;;;;12.93;6.28;;;;;;;;;;4992729;28;92483;-75
2024/01/11 10:23:33;;;;;;;8.50;6.03;;;;;;;;;;4995235;28;93151;-75
2024/01/11 10:25:59;;;;;;;7.72;5.55;;;;;;;;;;4998840;28;92489;-74
2024/01/11 10:28:26;;;;;;;14.63;6.22;;;;;;;;;;4993036;28;92174;-74
2024/01/11 10:30:53;;;;;;;8.73;5.63;;;;;;;;;;4991952;28;92855;-74
2024/01/11 10:33:21;;;;;;;10.20;5.50;;;;;;;;;;4989906;28;92501;-75
2024/01/11 10:35:50;;;;;;;12.63;5.45;;;;;;;;;;4998382;28;92636;-72
2024/01/11 10:38:20;;;;;;;7.78;5.15;;;;;;;;;;4994027;28;96658;-74
2024/01/11 10:40:46;;;;;;;7.28;5.78;;;;;;;;;;4992139;28;92524;-73
2024/01/11 10:43:16;;;;;;;7.10;5.10;;;;;;;;;;5010207;28;92476;-74
2024/01/11 10:45:44;;;;;;;11.88;5.82;;;;;;;;;;5008935;28;93918;-75
2024/01/11 10:48:14;;;;;;;9.18;5.28;;;;;;;;;;5009530;28;92663;-75
2024/01/11 10:50:42;;;;;;;10.80;5.85;;;;;;;;;;5011189;28;92693;-73
2024/01/11 10:53:27;;;;;;;8.55;5.20;;;;;;;;;;5009334;28;92484;-73
2024/01/11 10:55:58;;;;;;;8.20;4.97;;;;;;;;;;4996026;28;93023;-72
2024/01/11 10:58:28;;;;;;;10.65;5.00;;;;;;;;;;4993081;28;92292;-72
2024/01/11 11:00:55;;;;;;;9.68;5.70;;;;;;;;;;4991272;27;92495;-71
2024/01/11 11:03:23;;;;;;;10.40;5.22;;;;;;;;;;4992479;28;95324;-75
2024/01/11 11:05:52;;;;;;;7.65;5.30;;;;;;;;;;4995187;28;93007;-74
2024/01/11 11:08:19;;;;;;;9.25;5.03;;;;;;;;;;4991406;28;92918;-74
2024/01/11 11:10:47;;;;;;;7.55;4.93;;;;;;;;;;4997568;28;92997;-74
2024/01/11 11:13:14;;;;;;;7.28;5.18;;;;;;;;;;4975513;28;94204;-74
2024/01/11 11:15:45;;;;;;;4.82;4.22;;;;;;;;;;4994465;28;92516;-76
2024/01/11 11:18:14;;;;;;;7.75;5.30;;;;;;;;;;4993566;28;92900;-75
2024/01/11 11:20:44;;;;;;;7.18;4.78;;;;;;;;;;5002876;28;92233;-76
2024/01/11 11:23:13;;;;;;;5.10;4.45;;;;;;;;;;4996502;28;92449;-75
2024/01/11 11:25:40;;;;;;;6.90;4.63;;;;;;;;;;4995616;28;92501;-74
2024/01/11 11:28:07;;;;;;;6.38;4.28;;;;;;;;;;4995009;28;94986;-76
2024/01/11 11:30:36;;;;;;;11.10;5.28;;;;;;;;;;5002190;28;93984;-75
2024/01/11 11:33:22;;;;;;;13.15;4.72;;;;;;;;;;4991409;28;92943;-75
2024/01/11 11:35:53;;;;;;;5.63;4.38;;;;;;;;;;4997412;28;93134;-75
2024/01/11 11:38:21;;;;;;;8.67;4.27;;;;;;;;;;4995285;28;92623;-75
2024/01/11 11:40:48;;;;;;;8.95;4.57;;;;;;;;;;5004388;28;94639;-74
2024/01/11 11:43:16;;;;;;;8.43;4.68;;;;;;;;;;5009775;28;92364;-74
2024/01/11 11:45:42;;;;;;;7.70;4.32;;;;;;;;;;4998844;28;92117;-74
2024/01/11 11:48:28;;;;;;;5.32;3.95;;;;;;;;;;5000250;28;92483;-75
2024/01/11 11:51:07;;;;;;;5.78;4.10;;;;;;;;;;4999400;28;92469;-75
2024/01/11 11:53:34;;;;;;;8.30;4.43;;;;;;;;;;4993617;28;94921;-74
2024/01/11 11:56:01;;;;;;;5.22;4.20;;;;;;;;;;4992472;28;93349;-75
2024/01/11 11:58:31;;;;;;;6.18;4.00;;;;;;;;;;4999635;28;92837;-75
2024/01/11 12:00:59;;;;;;;7.70;4.43;;;;;;;;;;4999261;28;93130;-75
2024/01/11 12:03:28;;;;;;;9.93;3.80;;;;;;;;;;4997884;28;92458;-75
2024/01/11 12:05:55;;;;;;;5.80;3.67;;;;;;;;;;4993915;28;93188;-73
2024/01/11 12:08:22;;;;;;;7.30;4.22;;;;;;;;;;4993780;28;92924;-73
2024/01/11 12:10:48;;;;;;;5.03;4.03;;;;;;;;;;5006793;28;92004;-74
2024/01/11 12:13:15;;;;;;;7.43;4.82;;;;;;;;;;4994690;28;92903;-73
2024/01/11 12:15:41;;;;;;;7.47;4.85;;;;;;;;;;5004051;28;92487;-72
2024/01/11 12:18:07;;;;;;;12.88;5.00;;;;;;;;;;4991637;28;94894;-73
2024/01/11 12:20:34;;;;;;;7.00;4.88;;;;;;;;;;5006725;28;93215;-73
2024/01/11 12:23:02;;;;;;;6.85;4.47;;;;;;;;;;4998877;28;92539;-73
2024/01/11 12:25:29;;;;;;;8.13;5.63;;;;;;;;;;5016607;28;92866;-71
2024/01/11 12:27:55;;;;;;;7.03;4.78;;;;;;;;;;4998985;28;92818;-72
2024/01/11 12:30:22;;;;;;;6.78;5.03;;;;;;;;;;5010886;28;92386;-72
2024/01/11 12:32:49;;;;;;;9.25;4.78;;;;;;;;;;4994798;28;93018;-73
2024/01/11 12:35:17;;;;;;;10.75;5.35;;;;;;;;;;4992146;28;92468;-73
2024/01/11 12:38:00;;;;;;;8.30;5.07;;;;;;;;;;5001477;28;92704;-72
2024/01/11 12:40:31;;;;;;;6.20;4.20;;;;;;;;;;5000401;28;94286;-72
2024/01/11 12:42:59;;;;;;;9.55;4.35;;;;;;;;;;5008547;28;94927;-72
2024/01/11 12:45:29;;;;;;;7.97;4.63;;;;;;;;;;5004500;28;94008;-73
2024/01/11 12:47:56;;;;;;;5.45;3.80;;;;;;;;;;5007002;28;92991;-72
2024/01/11 12:50:23;;;;;;;7.00;4.00;;;;;;;;;;5003975;28;92448;-73
2024/01/11 12:53:17;;;;;;;6.93;4.28;;;;;;;;;;4999289;28;93271;-73
2024/01/11 12:55:48;;;;;;;7.93;4.57;;;;;;;;;;5001452;28;92454;-73
2024/01/11 12:58:25;;;;;;;4.32;3.38;;;;;;;;;;4997750;28;92799;-73
2024/01/11 13:00:53;;;;;;;6.00;4.20;;;;;;;;;;5005538;28;92077;-73
2024/01/11 13:03:22;;;;;;;10.70;3.83;;;;;;;;;;4992569;28;92358;-76
2024/01/11 13:05:50;;;;;;;5.63;3.90;;;;;;;;;;4992586;28;93679;-76
2024/01/11 13:08:17;;;;;;;5.38;4.00;;;;;;;;;;4992006;28;97594;-76
2024/01/11 13:10:47;;;;;;;5.68;4.32;;;;;;;;;;4994790;28;95470;-76
2024/01/11 13:13:15;;;;;;;4.28;3.72;;;;;;;;;;4992800;28;92344;-75
2024/01/11 13:15:41;;;;;;;5.03;3.47;;;;;;;;;;4996874;28;92351;-76
2024/01/11 13:18:08;;;;;;;5.38;3.95;;;;;;;;;;5003436;28;93966;-75
2024/01/11 13:20:34;;;;;;;6.80;4.57;;;;;;;;;;4993795;28;92947;-75
2024/01/11 13:23:14;;;;;;;5.43;4.00;;;;;;;;;;4992720;28;92542;-75
2024/01/11 13:25:41;;;;;;;7.13;3.60;;;;;;;;;;5003029;28;92097;-75
2024/01/11 13:28:08;;;;;;;5.22;3.95;;;;;;;;;;4998946;28;93092;-76
2024/01/11 13:30:35;;;;;;;5.15;3.65;;;;;;;;;;5006471;28;92864;-76
2024/01/11 13:33:01;;;;;;;5.03;3.42;;;;;;;;;;4992327;28;94578;-76
2024/01/11 13:35:28;;;;;;;4.55;3.35;;;;;;;;;;4994610;28;92755;-76
2024/01/11 13:37:55;;;;;;;6.22;3.65;;;;;;;;;;4994229;28;92964;-76
2024/01/11 13:40:21;;;;;;;5.03;3.70;;;;;;;;;;4996167;28;93223;-76
2024/01/11 13:42:48;;;;;;;6.55;4.13;;;;;;;;;;5006980;28;92524;-76
2024/01/11 13:45:14;;;;;;;5.43;3.40;;;;;;;;;;5012883;28;92430;-77
2024/01/11 13:47:41;;;;;;;5.07;3.92;;;;;;;;;;5011432;28;92489;-76
2024/01/11 13:50:07;;;;;;;5.78;3.45;;;;;;;;;;5011641;28;92106;-76
2024/01/11 13:52:34;;;;;;;3.85;3.30;;;;;;;;;;5001859;28;92038;-77
2024/01/11 13:55:00;;;;;;;8.00;4.20;;;;;;;;;;5009988;28;92895;-76
2024/01/11 13:57:27;;;;;;;5.28;3.80;;;;;;;;;;4998865;28;95482;-76
2024/01/11 13:59:54;;;;;;;6.80;3.90;;;;;;;;;;5002311;28;93230;-73
2024/01/11 14:02:21;;;;;;;5.95;4.70;;;;;;;;;;4992738;28;92884;-73
2024/01/11 14:04:47;;;;;;;6.80;3.72;;;;;;;;;;4994418;28;92483;-72
2024/01/11 14:07:14;;;;;;;3.70;3.38;;;;;;;;;;4992526;28;92996;-73
2024/01/11 14:09:40;;;;;;;5.30;4.20;;;;;;;;;;4995687;28;93267;-72
2024/01/11 14:12:07;;;;;;;7.65;4.03;;;;;;;;;;4991185;28;93093;-75
2024/01/11 14:14:34;;;;;;;5.05;3.63;;;;;;;;;;4996153;28;92457;-72
2024/01/11 14:17:00;;;;;;;8.10;3.60;;;;;;;;;;4993332;28;92534;-73
2024/01/11 14:19:28;;;;;;;3.88;3.47;;;;;;;;;;4994118;28;93230;-72
2024/01/11 14:21:54;;;;;;;8.38;2.83;;;;;;;;;;4990886;28;94407;-72
2024/01/11 14:24:21;;;;;;;5.50;3.53;;;;;;;;;;4992225;28;94456;-72
2024/01/11 14:26:58;;;;;;;3.65;3.25;;;;;;;;;;4997802;28;92870;-72
2024/01/11 14:29:26;;;;;;;4.35;2.90;;;;;;;;;;4992433;28;93298;-72
2024/01/11 14:31:53;;;;;;;5.50;3.65;;;;;;;;;;5001074;28;92738;-72
2024/01/11 14:34:20;;;;;;;3.67;3.38;;;;;;;;;;5004109;28;92730;-72
2024/01/11 14:36:47;;;;;;;10.23;3.70;;;;;;;;;;5001999;28;93439;-74
2024/01/11 14:39:14;;;;;;;4.13;3.47;;;;;;;;;;4997003;28;92564;-74